TimeCDT,TemperatureF,Dew PointF,Humidity,Sea Level PressureIn,VisibilityMPH,Wind Direction,Wind SpeedMPH,Gust SpeedMPH,PrecipitationIn,Events,Conditions,WindDirDegrees,DateUTC
12:15 AM,62.6,59.0,88,29.59,10.0,SE,12.7,-,N/A,,Mostly Cloudy,140,2013-05-20 05:15:00
12:35 AM,64.4,57.2,77,29.57,10.0,SSE,13.8,-,N/A,,Mostly Cloudy,160,2013-05-20 05:35:00
12:55 AM,62.6,59.0,88,29.54,10.0,SE,16.1,23.0,N/A,,Mostly Cloudy,140,2013-05-20 05:55:00
1:15 AM,62.6,57.2,82,29.55,10.0,SSE,19.6,25.3,N/A,,Overcast,150,2013-05-20 06:15:00
1:35 AM,62.6,57.2,82,29.54,10.0,SSE,18.4,25.3,N/A,,Overcast,150,2013-05-20 06:35:00
1:55 AM,62.6,57.2,82,29.53,10.0,SE,18.4,-,N/A,,Overcast,140,2013-05-20 06:55:00
2:15 AM,62.6,57.2,82,29.52,10.0,SE,15.0,18.4,N/A,,Overcast,140,2013-05-20 07:15:00
2:35 AM,62.6,57.2,82,29.52,10.0,SE,13.8,-,N/A,,Overcast,140,2013-05-20 07:35:00
3:15 AM,62.6,57.2,82,29.50,10.0,SSE,16.1,-,N/A,,Overcast,160,2013-05-20 08:15:00
3:35 AM,60.8,57.2,88,29.51,10.0,South,17.3,-,N/A,,Overcast,180,2013-05-20 08:35:00
3:55 AM,60.8,57.2,88,29.52,10.0,South,20.7,25.3,N/A,,Overcast,180,2013-05-20 08:55:00
4:15 AM,60.8,57.2,88,29.52,10.0,South,18.4,24.2,N/A,,Overcast,180,2013-05-20 09:15:00
4:35 AM,60.8,55.4,82,29.51,10.0,South,15.0,-,N/A,,Mostly Cloudy,180,2013-05-20 09:35:00
4:55 AM,60.8,55.4,82,29.52,10.0,South,13.8,-,N/A,,Overcast,180,2013-05-20 09:55:00
5:15 AM,60.8,55.4,82,29.52,10.0,South,16.1,-,N/A,,Mostly Cloudy,180,2013-05-20 10:15:00
5:35 AM,60.8,55.4,82,29.53,10.0,South,18.4,-,N/A,,Mostly Cloudy,190,2013-05-20 10:35:00
5:55 AM,59.0,55.4,88,29.54,10.0,South,13.8,-,N/A,,Overcast,190,2013-05-20 10:55:00
6:15 AM,59.0,55.4,88,29.54,10.0,South,16.1,-,N/A,,Mostly Cloudy,190,2013-05-20 11:15:00
6:35 AM,59.0,53.6,82,29.55,10.0,South,12.7,-,N/A,,Scattered Clouds,190,2013-05-20 11:35:00
6:55 AM,59.0,55.4,88,29.55,10.0,South,11.5,-,N/A,,Clear,180,2013-05-20 11:55:00
7:15 AM,60.8,55.4,82,29.54,10.0,South,10.4,-,N/A,,Clear,170,2013-05-20 12:15:00
7:35 AM,60.8,55.4,82,29.55,10.0,South,15.0,-,N/A,,Partly Cloudy,180,2013-05-20 12:35:00
7:55 AM,60.8,55.4,82,29.55,10.0,South,17.3,-,N/A,,Mostly Cloudy,180,2013-05-20 12:55:00
8:15 AM,60.8,55.4,82,29.54,10.0,South,12.7,-,N/A,,Overcast,180,2013-05-20 13:15:00
8:35 AM,60.8,55.4,82,29.54,10.0,South,15.0,-,N/A,,Overcast,190,2013-05-20 13:35:00
9:15 AM,60.8,55.4,82,29.55,10.0,SSW,15.0,-,N/A,,Overcast,200,2013-05-20 14:15:00
9:35 AM,60.8,55.4,82,29.54,10.0,South,13.8,-,N/A,,Overcast,190,2013-05-20 14:35:00
9:55 AM,60.8,55.4,82,29.54,10.0,SSW,17.3,-,N/A,,Overcast,200,2013-05-20 14:55:00
10:35 AM,60.8,55.4,82,29.54,7.0,South,13.8,-,N/A,,Overcast,190,2013-05-20 15:35:00
10:55 AM,62.6,57.2,82,29.54,8.0,South,19.6,-,N/A,,Overcast,190,2013-05-20 15:55:00
11:15 AM,62.6,57.2,82,29.55,9.0,South,17.3,20.7,N/A,,Mostly Cloudy,190,2013-05-20 16:15:00
11:35 AM,62.6,57.2,82,29.55,7.0,SSW,16.1,21.9,N/A,,Overcast,200,2013-05-20 16:35:00
11:55 AM,62.6,55.4,77,29.56,9.0,SSW,20.7,27.6,N/A,,Overcast,210,2013-05-20 16:55:00
12:15 PM,62.6,55.4,77,29.57,7.0,SW,17.3,24.2,N/A,,Overcast,220,2013-05-20 17:15:00
12:35 PM,62.6,55.4,77,29.57,10.0,SW,17.3,20.7,N/A,,Overcast,220,2013-05-20 17:35:00
1:15 PM,64.4,55.4,73,29.58,10.0,SSW,16.1,23.0,N/A,,Overcast,210,2013-05-20 18:15:00
1:55 PM,66.2,55.4,68,29.59,10.0,South,17.3,-,N/A,,Overcast,190,2013-05-20 18:55:00
2:15 PM,66.2,53.6,64,29.59,10.0,SSW,18.4,24.2,N/A,,Overcast,200,2013-05-20 19:15:00
2:35 PM,69.8,53.6,56,29.58,10.0,SSW,17.3,28.8,N/A,,Mostly Cloudy,210,2013-05-20 19:35:00
2:55 PM,69.8,53.6,56,29.59,10.0,SSW,20.7,26.5,N/A,,Mostly Cloudy,210,2013-05-20 19:55:00
3:15 PM,69.8,53.6,56,29.59,10.0,SSW,20.7,26.5,N/A,,Mostly Cloudy,210,2013-05-20 20:15:00
3:35 PM,71.6,53.6,53,29.58,10.0,SSW,20.7,24.2,N/A,,Mostly Cloudy,200,2013-05-20 20:35:00
3:55 PM,71.6,51.8,50,29.58,10.0,SSW,23.0,28.8,N/A,,Partly Cloudy,210,2013-05-20 20:55:00
4:15 PM,71.6,53.6,53,29.58,10.0,SSW,19.6,25.3,N/A,,Mostly Cloudy,210,2013-05-20 21:15:00
4:35 PM,69.8,53.6,56,29.58,10.0,South,21.9,27.6,N/A,,Overcast,190,2013-05-20 21:35:00
4:55 PM,69.8,53.6,56,29.57,10.0,South,20.7,27.6,N/A,,Overcast,190,2013-05-20 21:55:00
5:15 PM,69.8,51.8,53,29.58,10.0,South,24.2,31.1,N/A,,Overcast,190,2013-05-20 22:15:00
5:35 PM,69.8,53.6,56,29.57,10.0,South,20.7,24.2,N/A,,Overcast,190,2013-05-20 22:35:00
5:55 PM,69.8,53.6,56,29.57,10.0,South,17.3,-,N/A,,Overcast,190,2013-05-20 22:55:00
6:15 PM,66.2,55.4,68,29.57,10.0,SSW,11.5,-,N/A,,Overcast,200,2013-05-20 23:15:00
6:35 PM,68.0,55.4,64,29.56,10.0,South,15.0,18.4,N/A,,Mostly Cloudy,190,2013-05-20 23:35:00
6:55 PM,64.4,57.2,77,29.55,10.0,SSW,6.9,-,0.01,,Mostly Cloudy,200,2013-05-20 23:55:00
7:15 PM,64.4,57.2,77,29.55,10.0,SSW,5.8,-,N/A,,Overcast,200,2013-05-21 00:15:00
7:35 PM,64.4,57.2,77,29.54,9.0,SSW,6.9,-,0.08,,Overcast,200,2013-05-21 00:35:00
7:55 PM,62.6,57.2,82,29.54,9.0,SSW,8.1,-,0.15,Thunderstorm,Mostly Cloudy,200,2013-05-21 00:55:00
8:15 PM,64.4,57.2,77,29.53,10.0,SE,8.1,-,N/A,Thunderstorm,Scattered Clouds,140,2013-05-21 01:15:00
8:35 PM,64.4,57.2,77,29.54,10.0,SE,8.1,-,N/A,,Mostly Cloudy,140,2013-05-21 01:35:00
9:15 PM,62.6,57.2,82,29.55,10.0,SSE,11.5,-,N/A,,Mostly Cloudy,150,2013-05-21 02:15:00
9:35 PM,62.6,57.2,82,29.55,10.0,SSE,10.4,-,N/A,,Scattered Clouds,150,2013-05-21 02:35:00
9:55 PM,62.6,57.2,82,29.55,10.0,SSE,10.4,-,N/A,,Mostly Cloudy,150,2013-05-21 02:55:00
10:15 PM,62.6,57.2,82,29.54,10.0,SSE,11.5,-,N/A,,Overcast,160,2013-05-21 03:15:00
10:35 PM,60.8,57.2,88,29.53,10.0,South,9.2,-,N/A,,Mostly Cloudy,170,2013-05-21 03:35:00
10:55 PM,60.8,55.4,82,29.52,10.0,SSE,8.1,-,N/A,,Clear,160,2013-05-21 03:55:00
11:15 PM,60.8,55.4,82,29.52,10.0,SSE,9.2,-,N/A,,Clear,160,2013-05-21 04:15:00
11:35 PM,60.8,55.4,82,29.52,10.0,SSE,9.2,-,N/A,,Clear,160,2013-05-21 04:35:00
11:55 PM,60.8,55.4,82,29.53,10.0,SSE,9.2,-,N/A,,Partly Cloudy,150,2013-05-21 04:55:00